Terminal Aerodrome Forecast
Issued by NWS

Home | Current Version | Previous Version | Text Only | Print | Product List | Glossary On
Versions: 1 2 3 4 5 6 7 8 9 10 11 12 13 14 15 16 17 18 19 20 21
130
FTUS46 KEKA 242324
TAFCEC
TAF
KCEC 242324Z 2500/2524 34022G30KT 6SM HZ FEW006 SCT250
      TEMPO 2500/2503 34027G40KT
     FM250800 34015G25KT P6SM FEW006
     FM251100 34012G20KT 6SM BR BKN006
     FM251800 35010G20KT P6SM FEW006 SCT250=

USA.gov is the U.S. government's official web portal to all federal, state and local government web resources and services.